D/T METAR WX W/DIR W/SPE G/SPE TEMP DEWP
8/12/19 00:20 EGPC 080020Z AUTO 21012KT 9999 NCD 10/09 Q0972 SSW (210°) 13.8mph 10°C 9°C
7/12/19 23:50 EGPC 072350Z AUTO 21013KT 9999 FEW049/// 10/09 Q0974 SSW (210°) 15.0mph 10°C 9°C
7/12/19 23:20 EGPC 072320Z AUTO 21015KT 9999 -RA NCD 10/09 Q0974 -RA SSW (210°) 17.3mph 10°C 9°C
7/12/19 22:50 EGPC 072250Z AUTO 21015G26KT 180V240 9999 NCD 10/09 Q0975 SSW (210°) 17.3mph 29.9mph 10°C 9°C
7/12/19 22:20 EGPC 072220Z AUTO 20014KT 9999 NCD 10/09 Q0976 SSW (200°) 16.1mph 10°C 9°C
7/12/19 21:20 EGPC 072120Z AUTO 19014KT 9999 -RA FEW013/// 10/09 Q0979 -RA S (190°) 16.1mph 10°C 9°C
7/12/19 20:50 EGPC 072050Z AUTO 19016KT 9999 -RA NCD 10/08 Q0980 -RA S (190°) 18.4mph 10°C 8°C
7/12/19 20:20 EGPC 072020Z AUTO 19016KT 9999 -RA NCD 09/08 Q0981 -RA S (190°) 18.4mph 9°C 8°C
7/12/19 19:50 EGPC 071950Z AUTO 19017KT 9999 -RA SCT010/// OVC048/// 09/08 Q0982 -RA S (190°) 19.6mph 9°C 8°C
7/12/19 18:50 EGPC 071850Z AUTO 18012G22KT 9999 -RA BKN010/// 09/07 Q0985 -RA S (180°) 13.8mph 25.3mph 9°C 7°C
7/12/19 18:20 EGPC 071820Z AUTO 18012KT 9999 BKN016/// 09/07 Q0986 S (180°) 13.8mph 9°C 7°C
7/12/19 17:50 EGPC 071750Z AUTO 17014KT 9999 OVC016/// 08/07 Q0987 S (170°) 16.1mph 8°C 7°C
7/12/19 17:20 EGPC 071720Z AUTO 17014KT 9999 SCT006/// OVC015/// 08/07 Q0989 S (170°) 16.1mph 8°C 7°C
7/12/19 16:50 EGPC 071650Z AUTO 16017KT 9999 BKN004/// OVC023/// 08/07 Q0990 SSE (160°) 19.6mph 8°C 7°C
7/12/19 16:20 EGPC 071620Z AUTO 16017KT 7000 -RA BKN004/// OVC028/// 07/07 Q0991 -RA SSE (160°) 19.6mph 7°C 7°C
7/12/19 15:50 EGPC 071550Z AUTO 16017KT 8000 -RA BKN005/// BKN009/// OVC013/// 07/06 Q0992 -RA SSE (160°) 19.6mph 7°C 6°C
7/12/19 15:20 EGPC 071520Z AUTO 16015KT 9000 -RA BKN004/// BKN009/// OVC017/// 07/06 Q0993 -RA SSE (160°) 17.3mph 7°C 6°C
7/12/19 14:50 EGPC 071450Z AUTO 16015KT 6000 -RA BKN004/// OVC012/// 07/06 Q0994 -RA SSE (160°) 17.3mph 7°C 6°C
7/12/19 14:20 EGPC 071420Z AUTO 15013KT 8000 -RA BKN005/// BKN009/// OVC014/// 07/05 Q0995 -RA SSE (150°) 15.0mph 7°C 5°C
7/12/19 13:50 EGPC 071350Z AUTO 16009KT 9999 BKN009/// BKN014/// BKN019/// 06/05 Q0996 SSE (160°) 10.4mph 6°C 5°C
7/12/19 13:20 EGPC 071320Z AUTO 16008KT 9999 -RA BKN009/// BKN018/// 06/05 Q0997 -RA SSE (160°) 9.2mph 6°C 5°C
7/12/19 12:50 EGPC 071250Z AUTO 17003KT 9999 -RA SCT013/// BKN047/// 06/05 Q0998 -RA S (170°) 3.5mph 6°C 5°C
7/12/19 12:20 EGPC 071220Z AUTO 19002KT 9999 -RA OVC038/// 05/04 Q0999 -RA S (190°) 2.3mph 5°C 4°C
7/12/19 11:50 EGPC 071150Z AUTO 20004KT 9999 -RA BKN038/// OVC048/// 05/04 Q1000 -RA SSW (200°) 4.6mph 5°C 4°C
7/12/19 11:20 EGPC 071120Z AUTO 20004KT 9999 -RA BKN043/// OVC049/// 05/03 Q1000 -RA SSW (200°) 4.6mph 5°C 3°C
7/12/19 10:50 EGPC 071050Z AUTO VRB02KT 9999 -RA BKN040/// BKN047/// 04/03 Q1000 -RA N (0°) 2.3mph 4°C 3°C
7/12/19 10:20 EGPC 071020Z AUTO 26003KT 9999 BKN031/// 04/02 Q1001 W (260°) 3.5mph 4°C 2°C
7/12/19 09:50 EGPC 070950Z AUTO 27003KT 9999 BKN038/// BKN047/// 04/02 Q1001 W (270°) 3.5mph 4°C 2°C
7/12/19 09:20 EGPC 070920Z AUTO 25003KT 9999 NCD 04/02 Q1001 WSW (250°) 3.5mph 4°C 2°C
7/12/19 08:50 EGPC 070850Z AUTO 24003KT 9999 SCT045/// 03/02 Q1001 WSW (240°) 3.5mph 3°C 2°C
7/12/19 08:20 EGPC 070820Z AUTO 24004KT 9999 NCD 03/02 Q1001 WSW (240°) 4.6mph 3°C 2°C
7/12/19 07:50 EGPC 070750Z AUTO 24003KT 9999 FEW027/// SCT032/// 04/02 Q1001 WSW (240°) 3.5mph 4°C 2°C
7/12/19 07:20 EGPC 070720Z AUTO 26006KT 9999 -RA FEW025/// BKN029/// BKN049/// 04/02 Q1001 -RA W (260°) 6.9mph 4°C 2°C
7/12/19 06:50 EGPC 070650Z AUTO 26006KT 9999 FEW016/// SCT020/// BKN035/// 04/02 Q1001 W (260°) 6.9mph 4°C 2°C
7/12/19 06:20 EGPC 070620Z AUTO 24003KT 9999 -RA FEW007/// BKN024/// 03/02 Q1001 -RA WSW (240°) 3.5mph 3°C 2°C
7/12/19 05:20 EGPC 070520Z AUTO 27007KT 9999 FEW009/// SCT021/// BKN034/// 04/03 Q1001 W (270°) 8.1mph 4°C 3°C
7/12/19 04:50 EGPC 070450Z AUTO 27010KT 9999 -RA SCT020/// BKN026/// BKN034/// 04/03 Q1001 -RA W (270°) 11.5mph 4°C 3°C
7/12/19 04:20 EGPC 070420Z AUTO 25007KT 9999 -RA BKN034/// 04/03 Q1000 -RA WSW (250°) 8.1mph 4°C 3°C
7/12/19 03:50 EGPC 070350Z AUTO 28006KT 9999 SCT018/// SCT035/// 03/02 Q1000 W (280°) 6.9mph 3°C 2°C
7/12/19 03:20 EGPC 070320Z AUTO 27008KT 9999 -RA SCT004/// SCT017/// BKN027/// 04/03 Q1000 RERA -RA W (270°) 9.2mph 4°C 3°C
7/12/19 02:50 EGPC 070250Z AUTO 27007KT 9999 FEW035/// OVC043/// 04/02 Q0999 W (270°) 8.1mph 4°C 2°C
7/12/19 02:20 EGPC 070220Z AUTO 25004KT 9999 SCT042/// BKN049/// 03/02 Q0999 WSW (250°) 4.6mph 3°C 2°C
7/12/19 01:50 EGPC 070150Z AUTO 28007KT 9999 FEW004/// SCT033/// 04/03 Q0998 RERA W (280°) 8.1mph 4°C 3°C
7/12/19 01:20 EGPC 070120Z AUTO 26005KT 9999 -RA FEW008/// SCT032/// 04/03 Q0998 -RA W (260°) 5.8mph 4°C 3°C
7/12/19 00:50 EGPC 070050Z AUTO 29008KT 9999 FEW017/// SCT029/// BKN039/// 04/03 Q0998 WNW (290°) 9.2mph 4°C 3°C
7/12/19 00:20 EGPC 070020Z AUTO 27008KT 9999 BKN027/// BKN036/// 04/03 Q0998 W (270°) 9.2mph 4°C 3°C
6/12/19 23:50 EGPC 062350Z AUTO 26005KT 9999 FEW010/// SCT026/// BKN034/// 04/03 Q0998 W (260°) 5.8mph 4°C 3°C
6/12/19 23:20 EGPC 062320Z AUTO 28005KT 9999 FEW019/// SCT030/// 04/03 Q0998 W (280°) 5.8mph 4°C 3°C